createdAt,value
2023-01-03T00:02:51.643Z,15.00
2023-01-03T00:07:56.246Z,8.00
2023-01-03T00:13:00.831Z,15.00
2023-01-03T00:18:05.838Z,12.50
2023-01-03T00:23:10.399Z,7.00
2023-01-03T00:28:14.966Z,16.67
2023-01-03T00:33:19.548Z,14.00
2023-01-03T00:38:24.175Z,19.33
2023-01-03T00:43:31.601Z,19.50
2023-01-03T00:48:36.951Z,6.67
2023-01-03T00:53:42.573Z,17.00
2023-01-03T00:58:47.790Z,8.67
2023-01-03T01:03:57.446Z,14.00
2023-01-03T01:14:20.927Z,12.67
2023-01-03T01:19:30.729Z,15.00
2023-01-03T01:24:35.862Z,13.00
2023-01-03T01:29:41.448Z,14.67
2023-01-03T01:34:46.019Z,22.00
2023-01-03T01:39:52.944Z,17.67
2023-01-03T01:45:02.059Z,34.00
2023-01-03T01:50:19.686Z,25.33
2023-01-03T01:55:31.537Z,68.25
2023-01-03T02:00:37.178Z,29.50
2023-01-03T02:05:46.391Z,23.67
2023-01-03T02:11:05.891Z,17.25
2023-01-03T02:16:29.328Z,19.00
2023-01-03T02:21:49.389Z,18.50
2023-01-03T02:27:00.855Z,24.25
2023-01-03T02:32:05.416Z,29.25
2023-01-03T02:37:17.716Z,29.00
2023-01-03T02:42:52.427Z,15.67
2023-01-03T02:48:18.104Z,12.50
2023-01-03T02:53:32.861Z,14.33
2023-01-03T02:58:41.185Z,17.50
2023-01-03T03:03:50.421Z,15.67
2023-01-03T03:14:09.260Z,14.75
2023-01-03T03:19:56.144Z,18.00
2023-01-03T03:25:07.154Z,12.00
2023-01-03T03:30:16.688Z,16.75
2023-01-03T03:35:25.870Z,20.00
2023-01-03T03:40:55.184Z,38.25
2023-01-03T03:46:09.705Z,24.25
2023-01-03T03:51:19.207Z,22.25
2023-01-03T03:56:33.196Z,14.00
2023-01-03T04:06:51.467Z,15.50
2023-01-03T04:11:56.388Z,8.00
2023-01-03T04:17:01.151Z,5.33
2023-01-03T04:22:08.054Z,12.00
2023-01-03T04:27:13.857Z,24.50
2023-01-03T04:32:18.711Z,15.50
2023-01-03T04:37:23.532Z,8.67
2023-01-03T04:42:46.387Z,10.67
2023-01-03T04:47:51.381Z,31.00
2023-01-03T04:52:58.038Z,12.50
2023-01-03T04:58:03.469Z,13.50
2023-01-03T05:03:08.628Z,10.00
2023-01-03T05:08:14.539Z,14.33
2023-01-03T05:13:19.537Z,12.67
2023-01-03T05:23:48.344Z,13.50
2023-01-03T05:28:56.466Z,8.50
2023-01-03T05:34:01.563Z,8.00
2023-01-03T05:39:07.681Z,7.33
2023-01-03T05:44:12.624Z,10.00
2023-01-03T05:49:17.547Z,10.00
2023-01-03T05:54:22.777Z,9.50
2023-01-03T05:59:28.373Z,9.00
2023-01-03T06:04:33.269Z,11.33
2023-01-03T06:09:37.990Z,11.33
2023-01-03T06:19:47.420Z,31.00
2023-01-03T06:24:52.203Z,14.00
2023-01-03T06:29:56.947Z,8.50
2023-01-03T06:35:02.224Z,14.00
2023-01-03T06:40:07.899Z,6.00
2023-01-03T06:45:33.361Z,12.50
2023-01-03T06:50:59.868Z,11.00
2023-01-03T06:56:06.161Z,13.33
2023-01-03T07:01:12.162Z,17.25
2023-01-03T07:06:16.949Z,14.00
2023-01-03T07:11:21.999Z,14.00
2023-01-03T07:16:29.495Z,14.33
2023-01-03T07:21:36.862Z,10.50
2023-01-03T07:26:41.977Z,14.25
2023-01-03T07:31:46.836Z,12.00
2023-01-03T07:36:51.641Z,14.00
2023-01-03T07:42:14.714Z,16.50
2023-01-03T07:47:21.451Z,14.50
2023-01-03T07:52:26.680Z,14.00
2023-01-03T07:57:32.786Z,17.00
2023-01-03T08:02:38.261Z,17.00
2023-01-03T08:07:43.634Z,15.00
2023-01-03T08:13:08.875Z,16.00
2023-01-03T08:18:15.917Z,23.25
2023-01-03T08:23:21.299Z,17.50
2023-01-03T08:28:26.703Z,12.00
2023-01-03T08:33:40.451Z,15.00
2023-01-03T08:38:53.750Z,20.50
2023-01-03T08:44:02.609Z,25.75
2023-01-03T08:49:07.611Z,20.67
2023-01-03T08:59:17.489Z,24.33
2023-01-03T09:04:22.716Z,42.00
2023-01-03T09:09:27.536Z,31.67
2023-01-03T09:14:33.243Z,31.00
2023-01-03T09:19:38.644Z,100.33
2023-01-03T09:24:43.831Z,47.25
2023-01-03T09:29:50.230Z,148.00
2023-01-03T09:34:55.440Z,148.00
2023-01-03T09:40:00.618Z,78.33
2023-01-03T09:45:07.163Z,75.67
2023-01-03T09:50:39.220Z,37.75
2023-01-03T09:56:04.477Z,39.25
2023-01-03T10:01:53.031Z,31.00
2023-01-03T10:07:19.876Z,50.00
2023-01-03T10:12:37.588Z,111.00
2023-01-03T10:18:28.835Z,84.00
2023-01-03T10:28:44.719Z,44.25
2023-01-03T10:33:51.684Z,26.00
2023-01-03T10:39:09.778Z,35.00
2023-01-03T10:44:57.461Z,48.67
2023-01-03T10:50:03.501Z,31.00
2023-01-03T10:55:14.041Z,35.67
2023-01-03T11:00:33.865Z,39.75
2023-01-03T11:05:41.289Z,36.33
2023-01-03T11:11:01.768Z,48.00
2023-01-03T11:16:16.645Z,23.33
2023-01-03T11:21:35.078Z,20.00
2023-01-03T11:26:57.539Z,26.00
2023-01-03T11:32:09.132Z,25.00
2023-01-03T11:37:25.409Z,22.00
2023-01-03T11:42:40.815Z,25.00
2023-01-03T11:48:04.070Z,37.00
2023-01-03T11:53:23.811Z,31.33
2023-01-03T11:58:43.477Z,35.50
2023-01-03T12:04:31.136Z,38.33
2023-01-03T12:09:52.003Z,38.00
2023-01-03T12:15:07.035Z,39.00
2023-01-03T12:20:17.161Z,26.00
2023-01-03T12:25:56.856Z,26.00
2023-01-03T12:31:06.915Z,27.67
2023-01-03T12:36:39.149Z,26.00
2023-01-03T12:42:02.589Z,48.00
2023-01-03T12:47:14.924Z,15.67
2023-01-03T12:52:24.546Z,25.50
2023-01-03T12:57:51.138Z,29.00
2023-01-03T13:03:24.343Z,25.00
2023-01-03T13:08:49.028Z,26.67
2023-01-03T13:14:27.702Z,30.50
2023-01-03T13:19:38.483Z,26.00
2023-01-03T13:24:50.975Z,23.50
2023-01-03T13:30:00.919Z,29.00
2023-01-03T13:35:06.788Z,27.50
2023-01-03T13:40:34.742Z,37.00
2023-01-03T13:45:51.246Z,34.00
2023-01-03T13:56:29.179Z,38.25
2023-01-03T14:01:40.404Z,30.00
2023-01-03T14:07:09.187Z,35.00
2023-01-03T14:12:32.375Z,32.00
2023-01-03T14:17:40.484Z,35.50
2023-01-03T14:22:51.958Z,26.00
2023-01-03T14:27:57.577Z,27.00
2023-01-03T14:33:02.882Z,15.00
2023-01-03T14:38:08.581Z,26.75
2023-01-03T14:43:20.987Z,25.67
2023-01-03T14:48:27.143Z,18.00
2023-01-03T14:53:36.382Z,28.00
2023-01-03T14:58:47.603Z,30.00
2023-01-03T15:03:54.664Z,42.25
2023-01-03T15:09:02.802Z,42.00
2023-01-03T15:24:46.928Z,36.00
2023-01-03T15:29:52.874Z,46.00
2023-01-03T15:34:57.838Z,48.00
2023-01-03T15:40:08.345Z,65.25
2023-01-03T15:45:17.975Z,57.33
2023-01-03T15:50:27.526Z,67.75
2023-01-03T15:55:33.093Z,163.00
2023-01-03T16:05:42.495Z,79.33
2023-01-03T16:10:48.785Z,51.00
2023-01-03T16:15:55.104Z,56.00
2023-01-03T16:21:01.377Z,59.50
2023-01-03T16:26:06.813Z,72.67
2023-01-03T16:31:18.188Z,79.00
2023-01-03T16:36:41.529Z,49.33
2023-01-03T16:42:09.341Z,47.00
2023-01-03T16:47:27.289Z,51.25
2023-01-03T16:52:38.127Z,197.00
2023-01-03T16:57:46.271Z,156.00
2023-01-03T17:03:00.631Z,92.50
2023-01-03T17:08:22.190Z,210.00
2023-01-03T17:13:34.121Z,182.75
2023-01-03T17:18:39.071Z,93.67
2023-01-03T17:23:44.987Z,86.67
2023-01-03T17:28:51.790Z,48.00
2023-01-03T17:33:57.742Z,33.00
2023-01-03T17:39:04.839Z,38.00
2023-01-03T17:44:15.931Z,43.50
2023-01-03T17:49:26.564Z,45.00
2023-01-03T17:59:36.725Z,38.33
2023-01-03T18:05:13.322Z,36.50
2023-01-03T18:15:21.280Z,37.00
2023-01-03T18:20:27.760Z,33.00
2023-01-03T18:25:32.368Z,27.00
2023-01-03T18:30:36.925Z,32.00
2023-01-03T18:40:45.747Z,16.75
2023-01-03T18:45:50.906Z,17.00
2023-01-03T18:50:59.509Z,19.33
2023-01-03T18:56:05.800Z,27.00
2023-01-03T19:01:12.389Z,27.50
2023-01-03T19:06:23.837Z,21.50
2023-01-03T19:16:39.377Z,25.00
2023-01-03T19:21:47.084Z,26.00
2023-01-03T19:27:02.610Z,25.67
2023-01-03T19:32:16.148Z,18.00
2023-01-03T19:37:20.873Z,18.00
2023-01-03T19:42:43.540Z,11.33
2023-01-03T19:47:48.163Z,15.50
2023-01-03T19:52:54.432Z,22.33
2023-01-03T19:58:01.865Z,15.50
2023-01-03T20:03:12.905Z,17.75
2023-01-03T20:08:17.501Z,29.33
2023-01-03T20:13:27.688Z,35.00
2023-01-03T20:18:37.961Z,27.75
2023-01-03T20:23:46.398Z,32.00
2023-01-03T20:28:52.015Z,27.25
2023-01-03T20:33:56.677Z,26.33
2023-01-03T20:39:01.349Z,24.25
2023-01-03T20:44:10.735Z,26.33
2023-01-03T20:49:23.992Z,22.00
2023-01-03T20:54:28.572Z,19.75
2023-01-03T20:59:33.143Z,25.00
2023-01-03T21:04:37.986Z,22.00
2023-01-03T21:09:42.633Z,19.50
2023-01-03T21:14:50.738Z,21.50
2023-01-03T21:19:55.304Z,26.25
2023-01-03T21:24:59.847Z,24.75
2023-01-03T21:30:06.043Z,26.00
2023-01-03T21:35:14.913Z,21.50
2023-01-03T21:40:25.696Z,23.00
2023-01-03T21:45:33.033Z,22.00
2023-01-03T21:50:41.235Z,22.25
2023-01-03T21:55:46.192Z,19.75
2023-01-03T22:00:51.074Z,23.50
2023-01-03T22:06:05.548Z,29.00
2023-01-03T22:11:10.182Z,29.00
2023-01-03T22:16:15.316Z,25.00
2023-01-03T22:21:21.713Z,29.00
2023-01-03T22:26:32.345Z,23.50
2023-01-03T22:31:38.792Z,23.67
2023-01-03T22:36:43.396Z,25.50
2023-01-03T22:41:47.993Z,13.00
2023-01-03T22:46:52.857Z,20.00
2023-01-03T22:51:57.456Z,25.75
2023-01-03T22:57:01.998Z,30.50
2023-01-03T23:02:06.958Z,16.50
2023-01-03T23:07:11.754Z,30.75
2023-01-03T23:12:34.517Z,29.00
2023-01-03T23:18:14.191Z,30.75
2023-01-03T23:23:19.177Z,30.25
2023-01-03T23:28:24.146Z,32.00
2023-01-03T23:33:29.165Z,27.67
2023-01-03T23:38:34.458Z,48.33
2023-01-03T23:43:40.315Z,39.25
2023-01-03T23:48:47.278Z,42.00
2023-01-03T23:53:52.724Z,48.67
2023-01-03T23:58:57.792Z,42.25
